Rochdale, MA

3:01 PM EDT on April 21, 2015 (GMT -0400)
North Central State | Change Station
CLOSE
Current Station
Airport
Location: Pawtucket,
Elevation: 440 ft
Nearby Weather Stations

Elev 440 ft 41.92 °N, 71.49 °W | Updated 6 minutes ago

Overcast
Overcast
61 °F
Feels Like 61 °F
N
10
Wind Variable Wind from West
Gusts 21 mph

Today
High -- | Low -- °F
--% Chance of Precip.
Yesterday
High -- | Low -- °F
Precip. -- in
5:57 AM 7:35 PM
Waxing Crescent, 12% visible
Pressure 29.60 in
Visibility 10.0 miles
Clouds Scattered Clouds 3200 ft
Mostly Cloudy 3900 ft
Overcast 4500 ft
Dew Point 45 °F
Humidity 55%
Rainfall 0.40 in
Snow Depth Not available.
UV 2 out of 12
Pollen 4.20 out of 12
Air Quality Not available.
Flu Activity Widespread
METAR KSFZ 211855Z 28009G18KT 10SM SCT032 BKN039 OVC045 16/07 A2960 RMK AO1

More Conditions Fewer Conditions

Pressure 29.60 in
Visibility 10.0 miles
Clouds Scattered Clouds 3200 ft
Mostly Cloudy 3900 ft
Overcast 4500 ft
Dew Point 45 °F
Humidity 55%
Rainfall 0.40 in
Snow Depth Not available.
UV 2 out of 12
Pollen 4.20 out of 12
Air Quality Not available.
Flu Activity Widespread
METAR KSFZ 211855Z 28009G18KT 10SM SCT032 BKN039 OVC045 16/07 A2960 RMK AO1

More Conditions Fewer Conditions

10-Day Weather Forecast

Almanac

Astronomy

Apr. 21, 2015 Rise Set
Actual Time 5:57 AM EDT 7:35 PM EDT
Civil Twilight 5:28 AM EDT 8:05 PM EDT
Nautical Twilight 4:52 AM EDT 8:41 PM EDT
Astronomical Twilight 4:14 AM EDT 9:19 PM EDT
Moon 8:11 AM EDT 10:56 PM EDT
Length of Visible Light 14h 36m
Length of Day
13h 37m
Tomorrow will be 2m 38s longer.
Waxing Crescent, 12% of the Moon is Illuminated
Today
Waxing Crescent
Apr 25
First Quarter
May 3
Full
May 11
Last Quarter
May 18
New

Today's Extremes

State Highs State Lows

Community

WunderPhotos

Upload Photos

1,815,489 photos uploaded!

Nearby

Air Quality

  Air Quality AQ Index Pollutant
Yesterday Good
OZONE
Yesterday Good
PM2.5
Tuesday Good
PM2.5
Wednesday Good
PM2.5
Thursday Good
PM2.5

Snow Depth

Station Depth Elevation
No new snow has been reported.

Earthquake Activity

City Distance Mag. Time & Date
No recent earthquake activity has been reported nearby.
Minimum magnitude displayed is 2.5.

Coastal Water Temperatures

Place Temperature
No Stations Reporting

Nearby Weather Stations